sensor_id;sensor_type;location;lat;lon;timestamp;P1;durP1;ratioP1;P2;durP2;ratioP2
15764;SDS011;7983;50.744;7.086;2023-10-13T00:00:32;3.92;;;3.22;;
15764;SDS011;7983;50.744;7.086;2023-10-13T00:03:07;4.82;;;3.72;;
15764;SDS011;7983;50.744;7.086;2023-10-13T00:05:39;4.30;;;3.60;;
15764;SDS011;7983;50.744;7.086;2023-10-13T00:08:07;4.20;;;3.38;;
15764;SDS011;7983;50.744;7.086;2023-10-13T00:10:33;4.22;;;3.50;;
15764;SDS011;7983;50.744;7.086;2023-10-13T00:13:02;3.83;;;3.28;;
15764;SDS011;7983;50.744;7.086;2023-10-13T00:15:40;3.83;;;3.30;;
15764;SDS011;7983;50.744;7.086;2023-10-13T00:18:28;4.32;;;3.22;;
15764;SDS011;7983;50.744;7.086;2023-10-13T00:21:10;5.72;;;3.63;;
15764;SDS011;7983;50.744;7.086;2023-10-13T00:23:42;3.90;;;3.22;;
15764;SDS011;7983;50.744;7.086;2023-10-13T00:26:21;4.30;;;3.33;;
15764;SDS011;7983;50.744;7.086;2023-10-13T00:28:55;4.22;;;3.50;;
15764;SDS011;7983;50.744;7.086;2023-10-13T00:31:40;4.32;;;3.40;;
15764;SDS011;7983;50.744;7.086;2023-10-13T00:34:08;4.75;;;3.70;;
15764;SDS011;7983;50.744;7.086;2023-10-13T00:36:52;3.88;;;3.20;;
15764;SDS011;7983;50.744;7.086;2023-10-13T00:39:36;4.05;;;3.10;;
15764;SDS011;7983;50.744;7.086;2023-10-13T00:42:12;4.25;;;3.03;;
15764;SDS011;7983;50.744;7.086;2023-10-13T00:44:55;4.53;;;3.15;;
15764;SDS011;7983;50.744;7.086;2023-10-13T00:47:25;5.78;;;3.25;;
15764;SDS011;7983;50.744;7.086;2023-10-13T00:50:05;5.63;;;3.20;;
15764;SDS011;7983;50.744;7.086;2023-10-13T00:52:36;5.22;;;3.10;;
15764;SDS011;7983;50.744;7.086;2023-10-13T00:55:06;4.40;;;3.15;;
15764;SDS011;7983;50.744;7.086;2023-10-13T00:57:34;5.63;;;3.33;;
15764;SDS011;7983;50.744;7.086;2023-10-13T01:00:03;5.25;;;3.55;;
15764;SDS011;7983;50.744;7.086;2023-10-13T01:02:43;4.18;;;3.20;;
15764;SDS011;7983;50.744;7.086;2023-10-13T01:05:10;5.25;;;3.20;;
15764;SDS011;7983;50.744;7.086;2023-10-13T01:07:47;4.88;;;3.35;;
15764;SDS011;7983;50.744;7.086;2023-10-13T01:10:22;4.10;;;3.45;;
15764;SDS011;7983;50.744;7.086;2023-10-13T01:12:57;3.53;;;3.15;;
15764;SDS011;7983;50.744;7.086;2023-10-13T01:15:24;5.32;;;3.35;;
15764;SDS011;7983;50.744;7.086;2023-10-13T01:18:06;5.15;;;3.40;;
15764;SDS011;7983;50.744;7.086;2023-10-13T01:20:39;3.60;;;3.28;;
15764;SDS011;7983;50.744;7.086;2023-10-13T01:23:17;4.22;;;3.60;;
15764;SDS011;7983;50.744;7.086;2023-10-13T01:25:53;4.50;;;3.45;;
15764;SDS011;7983;50.744;7.086;2023-10-13T01:28:24;6.65;;;3.60;;
15764;SDS011;7983;50.744;7.086;2023-10-13T01:30:49;4.72;;;3.58;;
15764;SDS011;7983;50.744;7.086;2023-10-13T01:33:16;4.40;;;3.50;;
15764;SDS011;7983;50.744;7.086;2023-10-13T01:35:44;5.43;;;3.35;;
15764;SDS011;7983;50.744;7.086;2023-10-13T01:38:13;3.70;;;3.20;;
15764;SDS011;7983;50.744;7.086;2023-10-13T01:40:39;5.85;;;3.22;;
15764;SDS011;7983;50.744;7.086;2023-10-13T01:43:11;3.90;;;2.97;;
15764;SDS011;7983;50.744;7.086;2023-10-13T01:45:40;5.35;;;3.63;;
15764;SDS011;7983;50.744;7.086;2023-10-13T01:48:12;5.35;;;3.67;;
15764;SDS011;7983;50.744;7.086;2023-10-13T01:50:45;3.72;;;3.42;;
15764;SDS011;7983;50.744;7.086;2023-10-13T01:53:13;4.03;;;3.63;;
15764;SDS011;7983;50.744;7.086;2023-10-13T01:55:42;4.07;;;3.53;;
15764;SDS011;7983;50.744;7.086;2023-10-13T01:58:09;5.03;;;3.42;;
15764;SDS011;7983;50.744;7.086;2023-10-13T02:00:40;4.35;;;3.58;;
15764;SDS011;7983;50.744;7.086;2023-10-13T02:03:09;4.07;;;3.55;;
15764;SDS011;7983;50.744;7.086;2023-10-13T02:05:46;4.80;;;3.65;;
15764;SDS011;7983;50.744;7.086;2023-10-13T02:08:14;4.38;;;3.63;;
15764;SDS011;7983;50.744;7.086;2023-10-13T02:10:48;6.97;;;3.40;;
15764;SDS011;7983;50.744;7.086;2023-10-13T02:13:18;5.90;;;3.95;;
15764;SDS011;7983;50.744;7.086;2023-10-13T02:15:52;4.22;;;3.53;;
15764;SDS011;7983;50.744;7.086;2023-10-13T02:18:24;5.38;;;3.60;;
15764;SDS011;7983;50.744;7.086;2023-10-13T02:21:01;5.65;;;3.50;;
15764;SDS011;7983;50.744;7.086;2023-10-13T02:23:29;4.15;;;3.35;;
15764;SDS011;7983;50.744;7.086;2023-10-13T02:25:55;4.50;;;3.53;;
15764;SDS011;7983;50.744;7.086;2023-10-13T02:28:41;4.75;;;3.88;;
15764;SDS011;7983;50.744;7.086;2023-10-13T02:31:09;4.03;;;3.63;;
15764;SDS011;7983;50.744;7.086;2023-10-13T02:33:36;5.68;;;3.95;;
15764;SDS011;7983;50.744;7.086;2023-10-13T02:36:10;6.60;;;4.25;;
15764;SDS011;7983;50.744;7.086;2023-10-13T02:38:37;6.00;;;4.20;;
15764;SDS011;7983;50.744;7.086;2023-10-13T02:41:12;6.03;;;4.00;;
15764;SDS011;7983;50.744;7.086;2023-10-13T02:43:51;4.88;;;3.85;;
15764;SDS011;7983;50.744;7.086;2023-10-13T02:46:18;7.68;;;4.25;;
15764;SDS011;7983;50.744;7.086;2023-10-13T02:48:47;6.50;;;4.15;;
15764;SDS011;7983;50.744;7.086;2023-10-13T02:51:18;6.43;;;4.28;;
15764;SDS011;7983;50.744;7.086;2023-10-13T02:53:57;4.88;;;4.07;;
15764;SDS011;7983;50.744;7.086;2023-10-13T02:56:28;5.88;;;4.30;;
15764;SDS011;7983;50.744;7.086;2023-10-13T02:58:54;5.57;;;4.28;;
15764;SDS011;7983;50.744;7.086;2023-10-13T03:01:25;6.57;;;4.53;;
15764;SDS011;7983;50.744;7.086;2023-10-13T03:03:54;7.07;;;5.13;;
15764;SDS011;7983;50.744;7.086;2023-10-13T03:06:21;8.40;;;4.95;;
15764;SDS011;7983;50.744;7.086;2023-10-13T03:09:19;6.20;;;4.63;;
15764;SDS011;7983;50.744;7.086;2023-10-13T03:11:49;6.03;;;5.00;;
15764;SDS011;7983;50.744;7.086;2023-10-13T03:14:16;6.15;;;4.03;;
15764;SDS011;7983;50.744;7.086;2023-10-13T03:17:05;5.43;;;4.25;;
15764;SDS011;7983;50.744;7.086;2023-10-13T03:19:31;6.28;;;3.92;;
15764;SDS011;7983;50.744;7.086;2023-10-13T03:22:01;6.78;;;4.10;;
15764;SDS011;7983;50.744;7.086;2023-10-13T03:24:37;4.85;;;3.90;;
15764;SDS011;7983;50.744;7.086;2023-10-13T03:27:13;6.30;;;3.80;;
15764;SDS011;7983;50.744;7.086;2023-10-13T03:29:45;4.90;;;4.25;;
15764;SDS011;7983;50.744;7.086;2023-10-13T03:32:16;7.47;;;4.18;;
15764;SDS011;7983;50.744;7.086;2023-10-13T03:34:45;7.93;;;4.55;;
15764;SDS011;7983;50.744;7.086;2023-10-13T03:37:34;5.72;;;4.55;;
15764;SDS011;7983;50.744;7.086;2023-10-13T03:42:58;4.65;;;3.97;;
15764;SDS011;7983;50.744;7.086;2023-10-13T03:45:40;5.93;;;3.75;;
15764;SDS011;7983;50.744;7.086;2023-10-13T03:48:08;6.50;;;4.13;;
15764;SDS011;7983;50.744;7.086;2023-10-13T03:50:46;6.85;;;3.83;;
15764;SDS011;7983;50.744;7.086;2023-10-13T03:53:13;6.18;;;4.13;;
15764;SDS011;7983;50.744;7.086;2023-10-13T03:55:42;6.10;;;4.00;;
15764;SDS011;7983;50.744;7.086;2023-10-13T03:58:13;10.20;;;7.13;;
15764;SDS011;7983;50.744;7.086;2023-10-13T04:00:44;8.63;;;6.47;;
15764;SDS011;7983;50.744;7.086;2023-10-13T04:03:11;6.72;;;5.30;;
15764;SDS011;7983;50.744;7.086;2023-10-13T04:05:41;6.28;;;4.88;;
15764;SDS011;7983;50.744;7.086;2023-10-13T04:08:11;7.40;;;4.57;;
15764;SDS011;7983;50.744;7.086;2023-10-13T04:10:55;5.75;;;4.55;;
15764;SDS011;7983;50.744;7.086;2023-10-13T04:13:25;5.32;;;3.80;;
15764;SDS011;7983;50.744;7.086;2023-10-13T04:16:12;4.28;;;3.88;;
15764;SDS011;7983;50.744;7.086;2023-10-13T04:19:01;5.53;;;3.88;;
15764;SDS011;7983;50.744;7.086;2023-10-13T04:21:35;5.47;;;3.97;;
15764;SDS011;7983;50.744;7.086;2023-10-13T04:26:54;6.13;;;4.40;;
15764;SDS011;7983;50.744;7.086;2023-10-13T04:29:39;9.00;;;6.90;;
15764;SDS011;7983;50.744;7.086;2023-10-13T04:32:35;6.63;;;4.95;;
15764;SDS011;7983;50.744;7.086;2023-10-13T04:35:06;5.53;;;4.88;;
15764;SDS011;7983;50.744;7.086;2023-10-13T04:37:43;8.60;;;5.45;;
15764;SDS011;7983;50.744;7.086;2023-10-13T04:40:15;5.55;;;4.72;;
15764;SDS011;7983;50.744;7.086;2023-10-13T04:42:44;5.55;;;4.53;;
15764;SDS011;7983;50.744;7.086;2023-10-13T04:45:16;6.43;;;4.13;;
15764;SDS011;7983;50.744;7.086;2023-10-13T04:47:58;5.82;;;4.95;;
15764;SDS011;7983;50.744;7.086;2023-10-13T04:50:43;6.85;;;4.90;;
15764;SDS011;7983;50.744;7.086;2023-10-13T04:53:14;5.38;;;4.13;;
15764;SDS011;7983;50.744;7.086;2023-10-13T04:55:59;7.45;;;4.45;;
15764;SDS011;7983;50.744;7.086;2023-10-13T04:58:29;5.32;;;4.28;;
15764;SDS011;7983;50.744;7.086;2023-10-13T05:01:01;5.38;;;3.95;;
15764;SDS011;7983;50.744;7.086;2023-10-13T05:03:46;4.63;;;3.72;;
15764;SDS011;7983;50.744;7.086;2023-10-13T05:06:30;4.50;;;3.72;;
15764;SDS011;7983;50.744;7.086;2023-10-13T05:09:14;7.43;;;3.70;;
15764;SDS011;7983;50.744;7.086;2023-10-13T05:11:58;3.83;;;3.42;;
15764;SDS011;7983;50.744;7.086;2023-10-13T05:14:43;4.90;;;3.40;;
15764;SDS011;7983;50.744;7.086;2023-10-13T05:17:29;4.53;;;3.60;;
15764;SDS011;7983;50.744;7.086;2023-10-13T05:20:13;3.92;;;3.53;;
15764;SDS011;7983;50.744;7.086;2023-10-13T05:22:57;7.38;;;3.92;;
15764;SDS011;7983;50.744;7.086;2023-10-13T05:25:44;5.43;;;3.50;;
15764;SDS011;7983;50.744;7.086;2023-10-13T05:28:28;4.40;;;3.70;;
15764;SDS011;7983;50.744;7.086;2023-10-13T05:31:14;7.22;;;3.92;;
15764;SDS011;7983;50.744;7.086;2023-10-13T05:33:59;6.50;;;3.42;;
15764;SDS011;7983;50.744;7.086;2023-10-13T05:36:42;5.80;;;3.55;;
15764;SDS011;7983;50.744;7.086;2023-10-13T05:39:26;4.85;;;3.40;;
15764;SDS011;7983;50.744;7.086;2023-10-13T05:42:13;4.43;;;3.35;;
15764;SDS011;7983;50.744;7.086;2023-10-13T05:44:59;4.97;;;3.55;;
15764;SDS011;7983;50.744;7.086;2023-10-13T05:47:43;5.25;;;3.70;;
15764;SDS011;7983;50.744;7.086;2023-10-13T05:50:11;6.28;;;4.30;;
15764;SDS011;7983;50.744;7.086;2023-10-13T05:52:45;5.00;;;4.00;;
15764;SDS011;7983;50.744;7.086;2023-10-13T05:55:22;8.52;;;4.30;;
15764;SDS011;7983;50.744;7.086;2023-10-13T05:58:13;6.10;;;3.80;;
15764;SDS011;7983;50.744;7.086;2023-10-13T06:00:57;6.80;;;4.18;;
15764;SDS011;7983;50.744;7.086;2023-10-13T06:03:42;6.15;;;3.30;;
15764;SDS011;7983;50.744;7.086;2023-10-13T06:06:26;6.00;;;3.50;;
15764;SDS011;7983;50.744;7.086;2023-10-13T06:09:10;6.57;;;3.55;;
15764;SDS011;7983;50.744;7.086;2023-10-13T06:11:55;6.47;;;3.53;;
15764;SDS011;7983;50.744;7.086;2023-10-13T06:14:39;5.30;;;3.50;;
15764;SDS011;7983;50.744;7.086;2023-10-13T06:17:23;8.40;;;3.50;;
15764;SDS011;7983;50.744;7.086;2023-10-13T06:20:08;3.97;;;3.10;;
15764;SDS011;7983;50.744;7.086;2023-10-13T06:22:52;5.10;;;3.08;;
15764;SDS011;7983;50.744;7.086;2023-10-13T06:25:37;6.25;;;2.90;;
15764;SDS011;7983;50.744;7.086;2023-10-13T06:28:22;6.82;;;3.05;;
15764;SDS011;7983;50.744;7.086;2023-10-13T06:31:06;6.10;;;3.13;;
15764;SDS011;7983;50.744;7.086;2023-10-13T06:33:38;7.03;;;3.40;;
15764;SDS011;7983;50.744;7.086;2023-10-13T06:36:10;6.65;;;3.70;;
15764;SDS011;7983;50.744;7.086;2023-10-13T06:38:36;7.13;;;2.97;;
15764;SDS011;7983;50.744;7.086;2023-10-13T06:41:05;6.80;;;3.63;;
15764;SDS011;7983;50.744;7.086;2023-10-13T06:43:34;9.05;;;3.35;;
15764;SDS011;7983;50.744;7.086;2023-10-13T06:46:05;6.13;;;3.40;;
15764;SDS011;7983;50.744;7.086;2023-10-13T06:48:39;6.20;;;3.10;;
15764;SDS011;7983;50.744;7.086;2023-10-13T06:51:08;7.88;;;3.38;;
15764;SDS011;7983;50.744;7.086;2023-10-13T06:53:46;6.55;;;3.45;;
15764;SDS011;7983;50.744;7.086;2023-10-13T06:56:21;7.35;;;3.72;;
15764;SDS011;7983;50.744;7.086;2023-10-13T06:58:53;5.05;;;3.25;;
15764;SDS011;7983;50.744;7.086;2023-10-13T07:01:29;8.45;;;3.70;;
15764;SDS011;7983;50.744;7.086;2023-10-13T07:03:55;7.65;;;3.22;;
15764;SDS011;7983;50.744;7.086;2023-10-13T07:06:28;8.30;;;3.25;;
15764;SDS011;7983;50.744;7.086;2023-10-13T07:08:56;8.77;;;3.30;;
15764;SDS011;7983;50.744;7.086;2023-10-13T07:11:31;7.47;;;3.85;;
15764;SDS011;7983;50.744;7.086;2023-10-13T07:14:03;9.32;;;3.45;;
15764;SDS011;7983;50.744;7.086;2023-10-13T07:16:41;5.93;;;3.70;;
15764;SDS011;7983;50.744;7.086;2023-10-13T07:19:13;7.00;;;3.55;;
15764;SDS011;7983;50.744;7.086;2023-10-13T07:21:44;5.97;;;3.45;;
15764;SDS011;7983;50.744;7.086;2023-10-13T07:24:11;6.35;;;3.67;;
15764;SDS011;7983;50.744;7.086;2023-10-13T07:26:38;6.75;;;3.35;;
15764;SDS011;7983;50.744;7.086;2023-10-13T07:29:08;8.18;;;3.35;;
15764;SDS011;7983;50.744;7.086;2023-10-13T07:31:34;6.32;;;3.53;;
15764;SDS011;7983;50.744;7.086;2023-10-13T07:34:02;6.65;;;3.10;;
15764;SDS011;7983;50.744;7.086;2023-10-13T07:36:37;6.65;;;3.40;;
15764;SDS011;7983;50.744;7.086;2023-10-13T07:39:08;8.65;;;4.25;;
15764;SDS011;7983;50.744;7.086;2023-10-13T07:41:50;7.13;;;3.70;;
15764;SDS011;7983;50.744;7.086;2023-10-13T07:44:28;7.63;;;3.78;;
15764;SDS011;7983;50.744;7.086;2023-10-13T07:46:58;6.88;;;3.38;;
15764;SDS011;7983;50.744;7.086;2023-10-13T07:49:33;6.97;;;3.67;;
15764;SDS011;7983;50.744;7.086;2023-10-13T07:52:03;5.32;;;3.33;;
15764;SDS011;7983;50.744;7.086;2023-10-13T07:54:45;6.35;;;3.45;;
15764;SDS011;7983;50.744;7.086;2023-10-13T07:57:17;4.50;;;3.20;;
15764;SDS011;7983;50.744;7.086;2023-10-13T07:59:53;8.05;;;3.97;;
15764;SDS011;7983;50.744;7.086;2023-10-13T08:02:31;5.85;;;3.08;;
15764;SDS011;7983;50.744;7.086;2023-10-13T08:05:16;6.95;;;3.83;;
15764;SDS011;7983;50.744;7.086;2023-10-13T08:08:02;7.13;;;3.50;;
15764;SDS011;7983;50.744;7.086;2023-10-13T08:10:39;6.35;;;3.28;;
15764;SDS011;7983;50.744;7.086;2023-10-13T08:13:07;8.50;;;3.67;;
15764;SDS011;7983;50.744;7.086;2023-10-13T08:15:39;6.82;;;3.50;;
15764;SDS011;7983;50.744;7.086;2023-10-13T08:18:12;7.95;;;3.55;;
15764;SDS011;7983;50.744;7.086;2023-10-13T08:20:55;6.30;;;3.30;;
15764;SDS011;7983;50.744;7.086;2023-10-13T08:23:30;6.57;;;3.63;;
15764;SDS011;7983;50.744;7.086;2023-10-13T08:26:22;7.97;;;3.50;;
15764;SDS011;7983;50.744;7.086;2023-10-13T08:28:55;7.70;;;3.28;;
15764;SDS011;7983;50.744;7.086;2023-10-13T08:31:21;5.45;;;3.40;;
15764;SDS011;7983;50.744;7.086;2023-10-13T08:33:50;7.47;;;3.40;;
15764;SDS011;7983;50.744;7.086;2023-10-13T08:36:23;5.47;;;3.70;;
15764;SDS011;7983;50.744;7.086;2023-10-13T08:38:55;5.65;;;3.70;;
15764;SDS011;7983;50.744;7.086;2023-10-13T08:41:41;7.88;;;3.67;;
15764;SDS011;7983;50.744;7.086;2023-10-13T08:44:23;6.85;;;4.00;;
15764;SDS011;7983;50.744;7.086;2023-10-13T08:47:00;7.82;;;3.78;;
15764;SDS011;7983;50.744;7.086;2023-10-13T08:49:33;7.78;;;4.13;;
15764;SDS011;7983;50.744;7.086;2023-10-13T08:52:05;9.10;;;3.92;;
15764;SDS011;7983;50.744;7.086;2023-10-13T08:54:54;7.05;;;4.28;;
15764;SDS011;7983;50.744;7.086;2023-10-13T08:57:39;12.13;;;3.85;;
15764;SDS011;7983;50.744;7.086;2023-10-13T09:00:08;6.25;;;3.90;;
15764;SDS011;7983;50.744;7.086;2023-10-13T09:02:53;7.38;;;4.18;;
15764;SDS011;7983;50.744;7.086;2023-10-13T09:05:45;7.22;;;3.88;;
15764;SDS011;7983;50.744;7.086;2023-10-13T09:08:26;6.63;;;4.22;;
15764;SDS011;7983;50.744;7.086;2023-10-13T09:11:21;8.65;;;3.97;;
15764;SDS011;7983;50.744;7.086;2023-10-13T09:13:51;9.40;;;4.60;;
15764;SDS011;7983;50.744;7.086;2023-10-13T09:16:17;6.03;;;4.00;;
15764;SDS011;7983;50.744;7.086;2023-10-13T09:19:10;7.20;;;4.13;;
15764;SDS011;7983;50.744;7.086;2023-10-13T09:21:37;7.10;;;4.07;;
15764;SDS011;7983;50.744;7.086;2023-10-13T09:24:09;6.60;;;3.88;;
15764;SDS011;7983;50.744;7.086;2023-10-13T09:26:58;6.65;;;3.78;;
15764;SDS011;7983;50.744;7.086;2023-10-13T09:29:26;7.75;;;3.92;;
15764;SDS011;7983;50.744;7.086;2023-10-13T09:31:58;8.55;;;4.18;;
15764;SDS011;7983;50.744;7.086;2023-10-13T09:34:26;5.70;;;3.72;;
15764;SDS011;7983;50.744;7.086;2023-10-13T09:36:59;7.47;;;4.13;;
15764;SDS011;7983;50.744;7.086;2023-10-13T09:39:28;6.97;;;4.10;;
15764;SDS011;7983;50.744;7.086;2023-10-13T09:42:20;8.18;;;4.40;;
15764;SDS011;7983;50.744;7.086;2023-10-13T09:44:48;7.53;;;4.22;;
15764;SDS011;7983;50.744;7.086;2023-10-13T09:47:24;8.88;;;4.15;;
15764;SDS011;7983;50.744;7.086;2023-10-13T09:49:56;5.25;;;3.80;;
15764;SDS011;7983;50.744;7.086;2023-10-13T09:52:29;7.15;;;4.22;;
15764;SDS011;7983;50.744;7.086;2023-10-13T09:57:38;5.93;;;3.60;;
15764;SDS011;7983;50.744;7.086;2023-10-13T10:00:15;11.88;;;4.63;;
15764;SDS011;7983;50.744;7.086;2023-10-13T10:03:02;5.82;;;4.10;;
15764;SDS011;7983;50.744;7.086;2023-10-13T10:05:41;6.57;;;4.10;;
15764;SDS011;7983;50.744;7.086;2023-10-13T10:08:22;6.03;;;3.97;;
15764;SDS011;7983;50.744;7.086;2023-10-13T10:11:04;9.18;;;4.65;;
15764;SDS011;7983;50.744;7.086;2023-10-13T10:16:18;7.57;;;4.68;;
15764;SDS011;7983;50.744;7.086;2023-10-13T10:19:01;8.50;;;4.93;;
15764;SDS011;7983;50.744;7.086;2023-10-13T10:21:36;6.50;;;4.53;;
15764;SDS011;7983;50.744;7.086;2023-10-13T10:24:20;6.50;;;4.57;;
15764;SDS011;7983;50.744;7.086;2023-10-13T10:26:55;9.90;;;5.30;;
15764;SDS011;7983;50.744;7.086;2023-10-13T10:29:23;10.13;;;4.95;;
15764;SDS011;7983;50.744;7.086;2023-10-13T10:31:48;7.95;;;4.95;;
15764;SDS011;7983;50.744;7.086;2023-10-13T10:34:16;7.70;;;4.93;;
15764;SDS011;7983;50.744;7.086;2023-10-13T10:36:54;7.03;;;4.72;;
15764;SDS011;7983;50.744;7.086;2023-10-13T10:39:20;9.65;;;4.60;;
15764;SDS011;7983;50.744;7.086;2023-10-13T10:42:06;9.75;;;5.13;;
15764;SDS011;7983;50.744;7.086;2023-10-13T10:44:40;7.93;;;4.90;;
15764;SDS011;7983;50.744;7.086;2023-10-13T10:47:12;7.13;;;4.55;;
15764;SDS011;7983;50.744;7.086;2023-10-13T10:49:55;8.23;;;5.10;;
15764;SDS011;7983;50.744;7.086;2023-10-13T10:52:22;9.90;;;4.85;;
15764;SDS011;7983;50.744;7.086;2023-10-13T10:54:58;9.40;;;5.05;;
15764;SDS011;7983;50.744;7.086;2023-10-13T10:57:24;7.03;;;4.45;;
15764;SDS011;7983;50.744;7.086;2023-10-13T10:59:54;7.65;;;4.18;;
15764;SDS011;7983;50.744;7.086;2023-10-13T11:02:36;8.70;;;4.65;;
15764;SDS011;7983;50.744;7.086;2023-10-13T11:05:06;6.97;;;4.22;;
15764;SDS011;7983;50.744;7.086;2023-10-13T11:07:34;6.25;;;4.43;;
15764;SDS011;7983;50.744;7.086;2023-10-13T11:10:12;7.10;;;4.72;;
15764;SDS011;7983;50.744;7.086;2023-10-13T11:13:04;10.63;;;4.07;;
15764;SDS011;7983;50.744;7.086;2023-10-13T11:15:41;10.40;;;4.70;;
15764;SDS011;7983;50.744;7.086;2023-10-13T11:18:09;6.97;;;4.38;;
15764;SDS011;7983;50.744;7.086;2023-10-13T11:20:48;8.40;;;4.20;;
15764;SDS011;7983;50.744;7.086;2023-10-13T11:23:22;6.85;;;4.40;;
15764;SDS011;7983;50.744;7.086;2023-10-13T11:25:59;8.00;;;4.20;;
15764;SDS011;7983;50.744;7.086;2023-10-13T11:28:28;7.28;;;4.85;;
15764;SDS011;7983;50.744;7.086;2023-10-13T11:30:55;10.25;;;4.50;;
15764;SDS011;7983;50.744;7.086;2023-10-13T11:33:24;8.68;;;4.43;;
15764;SDS011;7983;50.744;7.086;2023-10-13T11:35:54;6.63;;;4.03;;
15764;SDS011;7983;50.744;7.086;2023-10-13T11:38:27;6.80;;;3.58;;
15764;SDS011;7983;50.744;7.086;2023-10-13T11:41:29;7.45;;;4.25;;
15764;SDS011;7983;50.744;7.086;2023-10-13T11:43:59;7.13;;;4.07;;
15764;SDS011;7983;50.744;7.086;2023-10-13T11:46:57;8.23;;;4.10;;
15764;SDS011;7983;50.744;7.086;2023-10-13T11:49:41;8.80;;;4.40;;
15764;SDS011;7983;50.744;7.086;2023-10-13T11:52:07;7.75;;;3.90;;
15764;SDS011;7983;50.744;7.086;2023-10-13T11:54:53;5.55;;;3.97;;
15764;SDS011;7983;50.744;7.086;2023-10-13T11:57:19;6.40;;;3.75;;
15764;SDS011;7983;50.744;7.086;2023-10-13T11:59:45;5.68;;;3.95;;
15764;SDS011;7983;50.744;7.086;2023-10-13T12:02:18;7.30;;;3.80;;
15764;SDS011;7983;50.744;7.086;2023-10-13T12:04:50;6.10;;;3.72;;
15764;SDS011;7983;50.744;7.086;2023-10-13T12:07:22;8.30;;;4.25;;
15764;SDS011;7983;50.744;7.086;2023-10-13T12:09:49;13.07;;;4.53;;
15764;SDS011;7983;50.744;7.086;2023-10-13T12:12:24;9.38;;;4.70;;
15764;SDS011;7983;50.744;7.086;2023-10-13T12:14:54;10.43;;;4.63;;
15764;SDS011;7983;50.744;7.086;2023-10-13T12:17:24;7.95;;;4.43;;
15764;SDS011;7983;50.744;7.086;2023-10-13T12:20:03;9.00;;;4.15;;
15764;SDS011;7983;50.744;7.086;2023-10-13T12:22:34;9.15;;;4.13;;
15764;SDS011;7983;50.744;7.086;2023-10-13T12:25:04;7.70;;;4.47;;
15764;SDS011;7983;50.744;7.086;2023-10-13T12:27:44;8.82;;;3.95;;
15764;SDS011;7983;50.744;7.086;2023-10-13T12:30:17;7.75;;;4.40;;
15764;SDS011;7983;50.744;7.086;2023-10-13T12:33:00;6.88;;;3.92;;
15764;SDS011;7983;50.744;7.086;2023-10-13T12:35:33;9.10;;;4.03;;
15764;SDS011;7983;50.744;7.086;2023-10-13T12:38:01;7.45;;;4.22;;
15764;SDS011;7983;50.744;7.086;2023-10-13T12:40:30;5.57;;;3.72;;
15764;SDS011;7983;50.744;7.086;2023-10-13T12:43:14;7.43;;;3.92;;
15764;SDS011;7983;50.744;7.086;2023-10-13T12:45:58;7.50;;;3.75;;
15764;SDS011;7983;50.744;7.086;2023-10-13T12:48:42;5.32;;;3.35;;
15764;SDS011;7983;50.744;7.086;2023-10-13T12:51:32;7.28;;;3.90;;
15764;SDS011;7983;50.744;7.086;2023-10-13T12:53:58;8.73;;;3.97;;
15764;SDS011;7983;50.744;7.086;2023-10-13T12:56:38;5.97;;;3.65;;
15764;SDS011;7983;50.744;7.086;2023-10-13T12:59:07;6.75;;;3.72;;
15764;SDS011;7983;50.744;7.086;2023-10-13T13:01:38;7.10;;;4.40;;
15764;SDS011;7983;50.744;7.086;2023-10-13T13:04:08;6.07;;;3.70;;
15764;SDS011;7983;50.744;7.086;2023-10-13T13:06:43;8.70;;;4.13;;
15764;SDS011;7983;50.744;7.086;2023-10-13T13:09:09;8.02;;;4.07;;
15764;SDS011;7983;50.744;7.086;2023-10-13T13:11:37;12.48;;;4.75;;
15764;SDS011;7983;50.744;7.086;2023-10-13T13:14:10;7.90;;;3.97;;
15764;SDS011;7983;50.744;7.086;2023-10-13T13:16:38;6.90;;;4.07;;
15764;SDS011;7983;50.744;7.086;2023-10-13T13:19:04;7.47;;;4.40;;
15764;SDS011;7983;50.744;7.086;2023-10-13T13:21:36;8.93;;;5.00;;
15764;SDS011;7983;50.744;7.086;2023-10-13T13:24:02;9.75;;;4.70;;
15764;SDS011;7983;50.744;7.086;2023-10-13T13:26:30;6.65;;;3.90;;
15764;SDS011;7983;50.744;7.086;2023-10-13T13:28:57;7.88;;;4.00;;
15764;SDS011;7983;50.744;7.086;2023-10-13T13:31:26;6.72;;;4.35;;
15764;SDS011;7983;50.744;7.086;2023-10-13T13:33:54;8.85;;;4.10;;
15764;SDS011;7983;50.744;7.086;2023-10-13T13:36:20;7.28;;;3.90;;
15764;SDS011;7983;50.744;7.086;2023-10-13T13:38:49;9.43;;;4.38;;
15764;SDS011;7983;50.744;7.086;2023-10-13T13:41:16;5.53;;;3.72;;
15764;SDS011;7983;50.744;7.086;2023-10-13T13:43:46;8.63;;;4.47;;
15764;SDS011;7983;50.744;7.086;2023-10-13T13:46:24;7.63;;;3.90;;
15764;SDS011;7983;50.744;7.086;2023-10-13T13:48:52;9.07;;;3.65;;
15764;SDS011;7983;50.744;7.086;2023-10-13T13:51:31;9.75;;;4.10;;
15764;SDS011;7983;50.744;7.086;2023-10-13T13:53:58;7.93;;;3.92;;
15764;SDS011;7983;50.744;7.086;2023-10-13T13:56:27;5.97;;;3.70;;
15764;SDS011;7983;50.744;7.086;2023-10-13T13:58:53;7.10;;;3.95;;
15764;SDS011;7983;50.744;7.086;2023-10-13T14:01:34;11.75;;;3.50;;
15764;SDS011;7983;50.744;7.086;2023-10-13T14:04:02;7.75;;;4.05;;
15764;SDS011;7983;50.744;7.086;2023-10-13T14:06:31;7.05;;;3.92;;
15764;SDS011;7983;50.744;7.086;2023-10-13T14:09:02;7.80;;;4.10;;
15764;SDS011;7983;50.744;7.086;2023-10-13T14:11:41;7.72;;;3.80;;
15764;SDS011;7983;50.744;7.086;2023-10-13T14:14:25;6.72;;;3.80;;
15764;SDS011;7983;50.744;7.086;2023-10-13T14:16:54;9.10;;;4.13;;
15764;SDS011;7983;50.744;7.086;2023-10-13T14:19:28;7.97;;;3.90;;
15764;SDS011;7983;50.744;7.086;2023-10-13T14:21:56;7.20;;;3.95;;
15764;SDS011;7983;50.744;7.086;2023-10-13T14:24:31;8.50;;;3.88;;
15764;SDS011;7983;50.744;7.086;2023-10-13T14:26:59;7.78;;;4.07;;
15764;SDS011;7983;50.744;7.086;2023-10-13T14:29:40;6.47;;;3.55;;
15764;SDS011;7983;50.744;7.086;2023-10-13T14:32:12;6.03;;;3.60;;
15764;SDS011;7983;50.744;7.086;2023-10-13T14:34:43;6.53;;;3.40;;
15764;SDS011;7983;50.744;7.086;2023-10-13T14:37:19;7.95;;;3.92;;
15764;SDS011;7983;50.744;7.086;2023-10-13T14:39:57;7.07;;;4.00;;
15764;SDS011;7983;50.744;7.086;2023-10-13T14:42:27;8.60;;;4.10;;
15764;SDS011;7983;50.744;7.086;2023-10-13T14:44:53;6.00;;;3.78;;
15764;SDS011;7983;50.744;7.086;2023-10-13T14:47:25;7.15;;;4.40;;
15764;SDS011;7983;50.744;7.086;2023-10-13T14:49:54;7.93;;;4.05;;
15764;SDS011;7983;50.744;7.086;2023-10-13T14:52:24;7.68;;;4.22;;
15764;SDS011;7983;50.744;7.086;2023-10-13T14:54:51;5.72;;;3.60;;
15764;SDS011;7983;50.744;7.086;2023-10-13T14:57:24;7.10;;;4.07;;
15764;SDS011;7983;50.744;7.086;2023-10-13T14:59:54;7.28;;;4.45;;
15764;SDS011;7983;50.744;7.086;2023-10-13T15:02:22;6.65;;;4.00;;
15764;SDS011;7983;50.744;7.086;2023-10-13T15:04:50;8.27;;;3.78;;
15764;SDS011;7983;50.744;7.086;2023-10-13T15:07:16;7.43;;;3.92;;
15764;SDS011;7983;50.744;7.086;2023-10-13T15:09:47;7.63;;;3.42;;
15764;SDS011;7983;50.744;7.086;2023-10-13T15:12:12;7.38;;;3.90;;
15764;SDS011;7983;50.744;7.086;2023-10-13T15:14:38;6.60;;;3.67;;
15764;SDS011;7983;50.744;7.086;2023-10-13T15:17:07;8.13;;;3.70;;
15764;SDS011;7983;50.744;7.086;2023-10-13T15:19:34;7.43;;;3.72;;
15764;SDS011;7983;50.744;7.086;2023-10-13T15:22:08;7.00;;;3.95;;
15764;SDS011;7983;50.744;7.086;2023-10-13T15:24:50;4.78;;;3.53;;
15764;SDS011;7983;50.744;7.086;2023-10-13T15:27:36;6.57;;;3.50;;
15764;SDS011;7983;50.744;7.086;2023-10-13T15:30:07;8.25;;;4.35;;
15764;SDS011;7983;50.744;7.086;2023-10-13T15:32:45;6.43;;;4.47;;
15764;SDS011;7983;50.744;7.086;2023-10-13T15:35:17;8.52;;;4.55;;
15764;SDS011;7983;50.744;7.086;2023-10-13T15:37:43;6.35;;;4.40;;
15764;SDS011;7983;50.744;7.086;2023-10-13T15:40:12;9.68;;;4.82;;
15764;SDS011;7983;50.744;7.086;2023-10-13T15:42:41;5.10;;;3.78;;
15764;SDS011;7983;50.744;7.086;2023-10-13T15:45:07;6.78;;;4.15;;
15764;SDS011;7983;50.744;7.086;2023-10-13T15:47:50;6.45;;;3.63;;
15764;SDS011;7983;50.744;7.086;2023-10-13T15:50:16;4.32;;;3.42;;
15764;SDS011;7983;50.744;7.086;2023-10-13T15:52:45;5.40;;;3.78;;
15764;SDS011;7983;50.744;7.086;2023-10-13T15:55:15;7.18;;;4.50;;